sensor_id;sensor_type;location;lat;lon;timestamp;pressure;altitude;pressure_sealevel;temperature;humidity
25510;BME280;13413;52.336;21.200;2023-07-13T00:01:32;100018.77;;;22.61;67.91
25510;BME280;13413;52.336;21.200;2023-07-13T00:04:26;100024.04;;;22.54;67.84
25510;BME280;13413;52.336;21.200;2023-07-13T00:07:20;100020.90;;;22.47;68.02
25510;BME280;13413;52.336;21.200;2023-07-13T00:10:14;100024.40;;;22.45;67.98
25510;BME280;13413;52.336;21.200;2023-07-13T00:13:09;100027.70;;;22.44;68.04
25510;BME280;13413;52.336;21.200;2023-07-13T00:16:02;100021.19;;;22.41;68.22
25510;BME280;13413;52.336;21.200;2023-07-13T00:18:56;100029.40;;;22.40;68.09
25510;BME280;13413;52.336;21.200;2023-07-13T00:21:50;100031.54;;;22.42;67.91
25510;BME280;13413;52.336;21.200;2023-07-13T00:30:18;100014.56;;;22.43;67.88
25510;BME280;13413;52.336;21.200;2023-07-13T00:33:12;100022.76;;;22.40;67.96
25510;BME280;13413;52.336;21.200;2023-07-13T00:36:07;100017.31;;;22.34;67.96
25510;BME280;13413;52.336;21.200;2023-07-13T00:42:12;100012.23;;;22.33;67.95
25510;BME280;13413;52.336;21.200;2023-07-13T00:48:41;100000.64;;;22.31;67.95
25510;BME280;13413;52.336;21.200;2023-07-13T00:51:39;100001.70;;;22.29;67.99
25510;BME280;13413;52.336;21.200;2023-07-13T00:54:36;100002.92;;;22.25;68.03
25510;BME280;13413;52.336;21.200;2023-07-13T00:57:32;100003.40;;;22.17;68.11
25510;BME280;13413;52.336;21.200;2023-07-13T01:00:27;99996.61;;;22.17;68.22
25510;BME280;13413;52.336;21.200;2023-07-13T01:03:23;99990.27;;;22.15;68.33
25510;BME280;13413;52.336;21.200;2023-07-13T01:06:17;100001.70;;;22.11;68.38
25510;BME280;13413;52.336;21.200;2023-07-13T01:09:11;100007.48;;;22.04;68.54
25510;BME280;13413;52.336;21.200;2023-07-13T01:12:07;100007.69;;;21.95;68.72
25510;BME280;13413;52.336;21.200;2023-07-13T01:15:03;100010.51;;;21.87;68.94
25510;BME280;13413;52.336;21.200;2023-07-13T01:17:57;100018.17;;;21.81;69.16
25510;BME280;13413;52.336;21.200;2023-07-13T01:20:54;100017.10;;;21.76;69.29
25510;BME280;13413;52.336;21.200;2023-07-13T01:23:49;100012.02;;;21.75;69.14
25510;BME280;13413;52.336;21.200;2023-07-13T01:26:43;100008.77;;;21.79;69.17
25510;BME280;13413;52.336;21.200;2023-07-13T01:29:38;100007.42;;;21.85;69.15
25510;BME280;13413;52.336;21.200;2023-07-13T01:32:32;100009.30;;;21.85;69.21
25510;BME280;13413;52.336;21.200;2023-07-13T01:35:27;100007.69;;;21.80;69.28
25510;BME280;13413;52.336;21.200;2023-07-13T01:38:22;100004.02;;;21.80;69.31
25510;BME280;13413;52.336;21.200;2023-07-13T01:41:16;100011.80;;;21.79;69.29
25510;BME280;13413;52.336;21.200;2023-07-13T01:44:10;100023.17;;;21.73;69.38
25510;BME280;13413;52.336;21.200;2023-07-13T01:47:05;100036.92;;;21.65;69.60
25510;BME280;13413;52.336;21.200;2023-07-13T01:49:59;100040.10;;;21.63;69.66
25510;BME280;13413;52.336;21.200;2023-07-13T01:52:52;100041.32;;;21.62;69.69
25510;BME280;13413;52.336;21.200;2023-07-13T01:55:47;100043.20;;;21.60;69.84
25510;BME280;13413;52.336;21.200;2023-07-13T01:58:40;100039.76;;;21.55;69.89
25510;BME280;13413;52.336;21.200;2023-07-13T02:01:35;100036.49;;;21.53;69.95
25510;BME280;13413;52.336;21.200;2023-07-13T02:04:29;100031.30;;;21.53;69.95
25510;BME280;13413;52.336;21.200;2023-07-13T02:07:23;100030.95;;;21.54;69.90
25510;BME280;13413;52.336;21.200;2023-07-13T02:10:19;100027.94;;;21.56;69.80
25510;BME280;13413;52.336;21.200;2023-07-13T02:13:14;100026.42;;;21.55;70.02
25510;BME280;13413;52.336;21.200;2023-07-13T02:16:08;100031.83;;;21.46;70.35
25510;BME280;13413;52.336;21.200;2023-07-13T02:19:02;100034.95;;;21.39;70.37
25510;BME280;13413;52.336;21.200;2023-07-13T02:21:56;100038.58;;;21.32;70.70
25510;BME280;13413;52.336;21.200;2023-07-13T02:24:50;100043.52;;;21.23;70.81
25510;BME280;13413;52.336;21.200;2023-07-13T02:27:45;100040.23;;;21.23;70.84
25510;BME280;13413;52.336;21.200;2023-07-13T02:30:39;100046.23;;;21.17;71.04
25510;BME280;13413;52.336;21.200;2023-07-13T02:33:34;100056.11;;;21.10;71.23
25510;BME280;13413;52.336;21.200;2023-07-13T02:36:28;100056.16;;;21.05;71.31
25510;BME280;13413;52.336;21.200;2023-07-13T02:42:14;100056.77;;;20.93;71.79
25510;BME280;13413;52.336;21.200;2023-07-13T02:50:37;100057.90;;;20.98;71.99
25510;BME280;13413;52.336;21.200;2023-07-13T02:53:31;100057.08;;;21.01;72.01
25510;BME280;13413;52.336;21.200;2023-07-13T02:56:26;100056.92;;;20.98;72.18
25510;BME280;13413;52.336;21.200;2023-07-13T02:59:21;100051.70;;;20.98;72.29
25510;BME280;13413;52.336;21.200;2023-07-13T03:02:15;100047.44;;;20.94;72.43
25510;BME280;13413;52.336;21.200;2023-07-13T03:05:10;100049.42;;;20.89;72.46
25510;BME280;13413;52.336;21.200;2023-07-13T03:08:04;100049.30;;;20.96;72.27
25510;BME280;13413;52.336;21.200;2023-07-13T03:11:02;100051.50;;;21.08;72.03
25510;BME280;13413;52.336;21.200;2023-07-13T03:13:57;100049.09;;;21.16;72.07
25510;BME280;13413;52.336;21.200;2023-07-13T03:16:51;100049.30;;;21.20;71.81
25510;BME280;13413;52.336;21.200;2023-07-13T03:19:45;100053.66;;;21.24;71.74
25510;BME280;13413;52.336;21.200;2023-07-13T03:22:39;100056.15;;;21.25;71.89
25510;BME280;13413;52.336;21.200;2023-07-13T03:25:33;100051.67;;;21.25;71.76
25510;BME280;13413;52.336;21.200;2023-07-13T03:28:27;100046.11;;;21.28;71.51
25510;BME280;13413;52.336;21.200;2023-07-13T03:31:24;100052.18;;;21.31;71.43
25510;BME280;13413;52.336;21.200;2023-07-13T03:34:18;100055.40;;;21.30;71.39
25510;BME280;13413;52.336;21.200;2023-07-13T03:37:12;100050.23;;;21.31;71.27
25510;BME280;13413;52.336;21.200;2023-07-13T03:40:08;100052.15;;;21.29;71.60
25510;BME280;13413;52.336;21.200;2023-07-13T03:43:02;100048.22;;;21.08;71.72
25510;BME280;13413;52.336;21.200;2023-07-13T03:45:56;100042.23;;;20.91;71.96
25510;BME280;13413;52.336;21.200;2023-07-13T03:48:50;100035.94;;;20.96;72.16
25510;BME280;13413;52.336;21.200;2023-07-13T03:51:44;100037.60;;;21.06;72.00
25510;BME280;13413;52.336;21.200;2023-07-13T03:54:38;100034.31;;;21.12;72.00
25510;BME280;13413;52.336;21.200;2023-07-13T03:57:32;100030.22;;;21.09;72.20
25510;BME280;13413;52.336;21.200;2023-07-13T04:00:26;100029.09;;;20.96;72.52
25510;BME280;13413;52.336;21.200;2023-07-13T04:03:20;100024.75;;;20.95;72.76
25510;BME280;13413;52.336;21.200;2023-07-13T04:06:18;100023.89;;;21.00;73.02
25510;BME280;13413;52.336;21.200;2023-07-13T04:09:13;100029.23;;;21.03;73.04
25510;BME280;13413;52.336;21.200;2023-07-13T04:12:08;100037.83;;;21.10;73.16
25510;BME280;13413;52.336;21.200;2023-07-13T04:15:02;100045.77;;;21.18;73.28
25510;BME280;13413;52.336;21.200;2023-07-13T04:17:56;100051.50;;;21.23;73.23
25510;BME280;13413;52.336;21.200;2023-07-13T04:20:51;100052.04;;;21.33;73.08
25510;BME280;13413;52.336;21.200;2023-07-13T04:23:45;100058.63;;;21.43;73.18
25510;BME280;13413;52.336;21.200;2023-07-13T04:26:39;100062.80;;;21.50;73.20
25510;BME280;13413;52.336;21.200;2023-07-13T04:29:33;100066.43;;;21.62;73.27
25510;BME280;13413;52.336;21.200;2023-07-13T04:32:27;100076.54;;;21.80;73.14
25510;BME280;13413;52.336;21.200;2023-07-13T04:35:22;100082.84;;;21.97;73.13
25510;BME280;13413;52.336;21.200;2023-07-13T04:38:15;100086.64;;;22.18;73.17
25510;BME280;13413;52.336;21.200;2023-07-13T04:41:10;100093.08;;;22.34;73.00
25510;BME280;13413;52.336;21.200;2023-07-13T04:44:04;100095.53;;;22.51;73.04
25510;BME280;13413;52.336;21.200;2023-07-13T04:46:58;100091.83;;;22.68;72.72
25510;BME280;13413;52.336;21.200;2023-07-13T04:49:52;100094.81;;;22.77;72.44
25510;BME280;13413;52.336;21.200;2023-07-13T04:52:48;100101.79;;;22.86;72.61
25510;BME280;13413;52.336;21.200;2023-07-13T04:55:42;100101.73;;;22.96;72.56
25510;BME280;13413;52.336;21.200;2023-07-13T04:58:36;100106.48;;;23.04;72.24
25510;BME280;13413;52.336;21.200;2023-07-13T05:01:30;100106.42;;;23.04;72.02
25510;BME280;13413;52.336;21.200;2023-07-13T05:10:29;100109.91;;;23.19;71.94
25510;BME280;13413;52.336;21.200;2023-07-13T05:13:23;100106.18;;;23.22;71.90
25510;BME280;13413;52.336;21.200;2023-07-13T05:16:17;100106.25;;;23.26;71.78
25510;BME280;13413;52.336;21.200;2023-07-13T05:19:11;100112.13;;;23.32;71.81
25510;BME280;13413;52.336;21.200;2023-07-13T05:22:05;100118.53;;;23.37;71.73
25510;BME280;13413;52.336;21.200;2023-07-13T05:24:59;100121.02;;;23.43;71.68
25510;BME280;13413;52.336;21.200;2023-07-13T05:27:53;100120.93;;;23.48;71.58
25510;BME280;13413;52.336;21.200;2023-07-13T05:30:48;100118.67;;;23.52;71.48
25510;BME280;13413;52.336;21.200;2023-07-13T05:33:42;100126.80;;;23.57;71.58
25510;BME280;13413;52.336;21.200;2023-07-13T05:36:36;100134.67;;;23.61;71.49
25510;BME280;13413;52.336;21.200;2023-07-13T05:39:30;100135.98;;;23.65;71.17
25510;BME280;13413;52.336;21.200;2023-07-13T05:42:24;100141.69;;;23.68;71.15
25510;BME280;13413;52.336;21.200;2023-07-13T05:45:18;100144.28;;;23.72;71.03
25510;BME280;13413;52.336;21.200;2023-07-13T05:48:12;100147.06;;;23.73;70.94
25510;BME280;13413;52.336;21.200;2023-07-13T05:51:06;100157.14;;;23.72;70.84
25510;BME280;13413;52.336;21.200;2023-07-13T05:54:00;100159.80;;;23.77;70.96
25510;BME280;13413;52.336;21.200;2023-07-13T05:56:54;100158.04;;;23.84;71.06
25510;BME280;13413;52.336;21.200;2023-07-13T05:59:48;100155.93;;;23.92;70.88
25510;BME280;13413;52.336;21.200;2023-07-13T06:02:42;100154.98;;;23.98;70.90
25510;BME280;13413;52.336;21.200;2023-07-13T06:05:37;100150.86;;;24.07;70.63
25510;BME280;13413;52.336;21.200;2023-07-13T06:08:29;100142.63;;;24.12;70.33
25510;BME280;13413;52.336;21.200;2023-07-13T06:11:25;100141.33;;;24.14;70.24
25510;BME280;13413;52.336;21.200;2023-07-13T06:14:19;100134.65;;;24.11;70.28
25510;BME280;13413;52.336;21.200;2023-07-13T06:17:13;100128.39;;;24.12;70.25
25510;BME280;13413;52.336;21.200;2023-07-13T06:20:09;100128.04;;;24.20;69.77
25510;BME280;13413;52.336;21.200;2023-07-13T06:23:04;100126.95;;;24.22;69.51
25510;BME280;13413;52.336;21.200;2023-07-13T06:25:57;100134.91;;;24.16;68.94
25510;BME280;13413;52.336;21.200;2023-07-13T06:28:52;100139.41;;;24.17;68.62
25510;BME280;13413;52.336;21.200;2023-07-13T06:31:46;100136.34;;;24.18;68.49
25510;BME280;13413;52.336;21.200;2023-07-13T06:34:40;100134.59;;;24.20;68.25
25510;BME280;13413;52.336;21.200;2023-07-13T06:37:34;100132.86;;;24.22;67.05
25510;BME280;13413;52.336;21.200;2023-07-13T06:40:28;100127.33;;;24.25;67.32
25510;BME280;13413;52.336;21.200;2023-07-13T06:43:22;100126.57;;;24.37;66.61
25510;BME280;13413;52.336;21.200;2023-07-13T06:46:16;100124.92;;;24.51;65.96
25510;BME280;13413;52.336;21.200;2023-07-13T06:49:11;100129.48;;;24.61;64.40
25510;BME280;13413;52.336;21.200;2023-07-13T06:52:08;100137.58;;;24.59;64.00
25510;BME280;13413;52.336;21.200;2023-07-13T06:55:02;100134.27;;;24.54;64.09
25510;BME280;13413;52.336;21.200;2023-07-13T06:57:55;100129.65;;;24.59;64.24
25510;BME280;13413;52.336;21.200;2023-07-13T07:00:52;100126.52;;;24.73;63.67
25510;BME280;13413;52.336;21.200;2023-07-13T07:03:45;100124.36;;;24.91;63.24
25510;BME280;13413;52.336;21.200;2023-07-13T07:06:39;100121.48;;;25.10;62.19
25510;BME280;13413;52.336;21.200;2023-07-13T07:09:33;100119.48;;;25.20;60.64
25510;BME280;13413;52.336;21.200;2023-07-13T07:12:27;100112.56;;;25.12;60.05
25510;BME280;13413;52.336;21.200;2023-07-13T07:15:21;100100.05;;;25.18;59.46
25510;BME280;13413;52.336;21.200;2023-07-13T07:18:15;100096.14;;;25.21;59.15
25510;BME280;13413;52.336;21.200;2023-07-13T07:21:08;100104.05;;;25.27;59.23
25510;BME280;13413;52.336;21.200;2023-07-13T07:29:50;100114.64;;;25.47;58.39
25510;BME280;13413;52.336;21.200;2023-07-13T07:32:43;100121.38;;;25.55;57.69
25510;BME280;13413;52.336;21.200;2023-07-13T07:35:37;100129.68;;;25.65;57.40
25510;BME280;13413;52.336;21.200;2023-07-13T07:38:32;100134.89;;;25.76;57.93
25510;BME280;13413;52.336;21.200;2023-07-13T07:41:25;100135.24;;;25.98;57.62
25510;BME280;13413;52.336;21.200;2023-07-13T07:44:19;100140.82;;;25.94;55.88
25510;BME280;13413;52.336;21.200;2023-07-13T07:47:14;100140.73;;;25.99;56.40
25510;BME280;13413;52.336;21.200;2023-07-13T07:50:09;100133.09;;;26.09;56.82
25510;BME280;13413;52.336;21.200;2023-07-13T07:53:03;100130.52;;;26.14;56.22
25510;BME280;13413;52.336;21.200;2023-07-13T07:55:58;100130.84;;;26.12;55.31
25510;BME280;13413;52.336;21.200;2023-07-13T07:58:51;100139.68;;;26.08;54.47
25510;BME280;13413;52.336;21.200;2023-07-13T08:01:46;100139.88;;;26.05;53.48
25510;BME280;13413;52.336;21.200;2023-07-13T08:04:39;100144.55;;;26.05;53.86
25510;BME280;13413;52.336;21.200;2023-07-13T08:07:34;100140.80;;;26.24;54.77
25510;BME280;13413;52.336;21.200;2023-07-13T08:10:29;100138.42;;;26.48;54.32
25510;BME280;13413;52.336;21.200;2023-07-13T08:13:23;100139.76;;;26.56;53.55
25510;BME280;13413;52.336;21.200;2023-07-13T08:16:17;100142.14;;;26.69;53.51
25510;BME280;13413;52.336;21.200;2023-07-13T08:19:10;100142.69;;;26.68;52.55
25510;BME280;13413;52.336;21.200;2023-07-13T08:22:05;100145.29;;;26.69;53.41
25510;BME280;13413;52.336;21.200;2023-07-13T08:25:00;100143.07;;;26.87;53.42
25510;BME280;13413;52.336;21.200;2023-07-13T08:27:53;100146.98;;;27.04;53.40
25510;BME280;13413;52.336;21.200;2023-07-13T08:30:48;100148.40;;;27.14;53.04
25510;BME280;13413;52.336;21.200;2023-07-13T08:33:42;100147.15;;;27.18;53.38
25510;BME280;13413;52.336;21.200;2023-07-13T08:36:36;100146.10;;;27.29;53.18
25510;BME280;13413;52.336;21.200;2023-07-13T08:39:31;100146.73;;;27.35;53.20
25510;BME280;13413;52.336;21.200;2023-07-13T08:42:36;100144.28;;;27.39;53.02
25510;BME280;13413;52.336;21.200;2023-07-13T08:45:34;100145.60;;;27.47;52.96
25510;BME280;13413;52.336;21.200;2023-07-13T08:48:34;100147.15;;;27.55;52.89
25510;BME280;13413;52.336;21.200;2023-07-13T08:51:37;100151.05;;;27.61;52.56
25510;BME280;13413;52.336;21.200;2023-07-13T08:54:34;100163.50;;;27.60;52.50
25510;BME280;13413;52.336;21.200;2023-07-13T08:57:33;100165.41;;;27.55;52.64
25510;BME280;13413;52.336;21.200;2023-07-13T09:00:37;100168.38;;;27.66;52.54
25510;BME280;13413;52.336;21.200;2023-07-13T09:03:40;100159.85;;;27.79;52.48
25510;BME280;13413;52.336;21.200;2023-07-13T09:06:42;100158.20;;;27.88;52.05
25510;BME280;13413;52.336;21.200;2023-07-13T09:09:48;100167.00;;;27.95;52.00
25510;BME280;13413;52.336;21.200;2023-07-13T09:12:56;100173.89;;;28.09;51.84
25510;BME280;13413;52.336;21.200;2023-07-13T09:15:52;100172.59;;;28.21;51.13
25510;BME280;13413;52.336;21.200;2023-07-13T09:18:49;100177.12;;;28.17;50.98
25510;BME280;13413;52.336;21.200;2023-07-13T09:21:45;100184.05;;;27.93;49.54
25510;BME280;13413;52.336;21.200;2023-07-13T09:24:49;100186.20;;;27.33;48.18
25510;BME280;13413;52.336;21.200;2023-07-13T09:27:46;100187.61;;;26.78;48.18
25510;BME280;13413;52.336;21.200;2023-07-13T09:30:46;100188.59;;;26.47;47.92
25510;BME280;13413;52.336;21.200;2023-07-13T09:33:44;100196.73;;;26.28;48.11
25510;BME280;13413;52.336;21.200;2023-07-13T09:36:38;100197.06;;;26.12;48.51
25510;BME280;13413;52.336;21.200;2023-07-13T09:39:31;100199.84;;;25.95;48.65
25510;BME280;13413;52.336;21.200;2023-07-13T09:42:25;100199.02;;;25.77;49.01
25510;BME280;13413;52.336;21.200;2023-07-13T09:50:33;100185.54;;;25.28;50.17
25510;BME280;13413;52.336;21.200;2023-07-13T09:53:32;100178.57;;;25.19;50.61
25510;BME280;13413;52.336;21.200;2023-07-13T09:56:29;100175.58;;;25.18;51.11
25510;BME280;13413;52.336;21.200;2023-07-13T09:59:27;100172.73;;;25.15;51.47
25510;BME280;13413;52.336;21.200;2023-07-13T10:02:29;100165.73;;;25.07;51.98
25510;BME280;13413;52.336;21.200;2023-07-13T10:05:24;100156.91;;;25.17;52.41
25510;BME280;13413;52.336;21.200;2023-07-13T10:08:24;100155.30;;;25.37;52.34
25510;BME280;13413;52.336;21.200;2023-07-13T10:11:20;100156.71;;;25.70;52.57
25510;BME280;13413;52.336;21.200;2023-07-13T10:14:16;100156.59;;;26.08;51.99
25510;BME280;13413;52.336;21.200;2023-07-13T10:17:13;100149.60;;;26.25;51.52
25510;BME280;13413;52.336;21.200;2023-07-13T10:20:08;100138.58;;;26.42;51.50
25510;BME280;13413;52.336;21.200;2023-07-13T10:23:04;100136.83;;;26.55;50.83
25510;BME280;13413;52.336;21.200;2023-07-13T10:26:01;100138.57;;;26.50;50.67
25510;BME280;13413;52.336;21.200;2023-07-13T10:28:57;100138.38;;;26.39;50.46
25510;BME280;13413;52.336;21.200;2023-07-13T10:31:53;100126.22;;;26.14;50.47
25510;BME280;13413;52.336;21.200;2023-07-13T10:34:47;100123.05;;;26.06;51.10
25510;BME280;13413;52.336;21.200;2023-07-13T10:37:45;100125.10;;;26.10;51.14
25510;BME280;13413;52.336;21.200;2023-07-13T10:40:45;100120.44;;;26.08;51.09
25510;BME280;13413;52.336;21.200;2023-07-13T10:43:43;100123.90;;;26.02;51.42
25510;BME280;13413;52.336;21.200;2023-07-13T10:46:39;100120.69;;;25.95;51.52
25510;BME280;13413;52.336;21.200;2023-07-13T10:49:36;100122.59;;;25.78;51.54
25510;BME280;13413;52.336;21.200;2023-07-13T10:52:46;100122.74;;;25.61;51.71
25510;BME280;13413;52.336;21.200;2023-07-13T10:55:54;100128.60;;;25.49;51.93
25510;BME280;13413;52.336;21.200;2023-07-13T11:01:50;100134.56;;;25.38;52.53
25510;BME280;13413;52.336;21.200;2023-07-13T11:07:56;100140.23;;;25.32;52.62
25510;BME280;13413;52.336;21.200;2023-07-13T11:10:56;100139.95;;;25.25;52.95
25510;BME280;13413;52.336;21.200;2023-07-13T11:13:58;100148.80;;;25.22;53.19
25510;BME280;13413;52.336;21.200;2023-07-13T11:20:36;100162.54;;;25.00;54.05
25510;BME280;13413;52.336;21.200;2023-07-13T11:26:51;100185.52;;;24.67;55.21
25510;BME280;13413;52.336;21.200;2023-07-13T11:29:45;100195.02;;;24.46;56.16
25510;BME280;13413;52.336;21.200;2023-07-13T11:32:39;100202.70;;;24.32;56.96
25510;BME280;13413;52.336;21.200;2023-07-13T11:35:35;100204.23;;;24.19;57.81
25510;BME280;13413;52.336;21.200;2023-07-13T11:38:35;100213.56;;;24.02;58.51
25510;BME280;13413;52.336;21.200;2023-07-13T11:41:31;100215.34;;;23.80;58.92
25510;BME280;13413;52.336;21.200;2023-07-13T11:44:28;100221.57;;;23.63;59.59
25510;BME280;13413;52.336;21.200;2023-07-13T11:47:23;100217.78;;;23.56;60.35
25510;BME280;13413;52.336;21.200;2023-07-13T11:50:22;100219.77;;;23.43;61.01
25510;BME280;13413;52.336;21.200;2023-07-13T11:53:16;100221.73;;;23.20;61.41
25510;BME280;13413;52.336;21.200;2023-07-13T11:56:10;100219.48;;;23.16;61.79
25510;BME280;13413;52.336;21.200;2023-07-13T11:59:12;100215.13;;;23.11;62.35
25510;BME280;13413;52.336;21.200;2023-07-13T12:02:13;100218.83;;;23.13;62.93
25510;BME280;13413;52.336;21.200;2023-07-13T12:10:31;100227.94;;;23.08;63.56
25510;BME280;13413;52.336;21.200;2023-07-13T12:13:23;100236.36;;;23.04;64.03
25510;BME280;13413;52.336;21.200;2023-07-13T12:16:22;100236.05;;;23.08;64.50
25510;BME280;13413;52.336;21.200;2023-07-13T12:19:21;100240.15;;;23.05;64.62
25510;BME280;13413;52.336;21.200;2023-07-13T12:22:17;100237.83;;;23.00;64.93
25510;BME280;13413;52.336;21.200;2023-07-13T12:25:15;100233.82;;;22.91;65.21
25510;BME280;13413;52.336;21.200;2023-07-13T12:28:28;100230.43;;;22.86;65.08
25510;BME280;13413;52.336;21.200;2023-07-13T12:31:32;100229.77;;;22.91;65.67
25510;BME280;13413;52.336;21.200;2023-07-13T12:34:27;100223.36;;;22.80;66.10
25510;BME280;13413;52.336;21.200;2023-07-13T12:37:22;100216.23;;;22.70;66.44
25510;BME280;13413;52.336;21.200;2023-07-13T12:40:16;100205.95;;;22.53;66.98
25510;BME280;13413;52.336;21.200;2023-07-13T12:43:14;100203.70;;;22.43;67.19
25510;BME280;13413;52.336;21.200;2023-07-13T12:46:19;100207.68;;;22.52;67.35
25510;BME280;13413;52.336;21.200;2023-07-13T12:49:23;100211.95;;;22.57;66.99
25510;BME280;13413;52.336;21.200;2023-07-13T12:52:17;100212.16;;;22.58;67.25
25510;BME280;13413;52.336;21.200;2023-07-13T12:55:16;100206.55;;;22.70;67.43
25510;BME280;13413;52.336;21.200;2023-07-13T12:58:19;100203.81;;;22.86;67.73
25510;BME280;13413;52.336;21.200;2023-07-13T13:01:15;100201.95;;;22.82;67.00
25510;BME280;13413;52.336;21.200;2023-07-13T13:04:11;100207.05;;;22.77;67.27
25510;BME280;13413;52.336;21.200;2023-07-13T13:07:10;100206.04;;;22.73;67.74
25510;BME280;13413;52.336;21.200;2023-07-13T13:10:13;100207.23;;;22.81;67.76
25510;BME280;13413;52.336;21.200;2023-07-13T13:13:07;100200.40;;;22.87;68.31
25510;BME280;13413;52.336;21.200;2023-07-13T13:16:07;100206.48;;;22.87;68.16
25510;BME280;13413;52.336;21.200;2023-07-13T13:19:10;100201.33;;;22.73;69.29
25510;BME280;13413;52.336;21.200;2023-07-13T13:22:08;100200.06;;;22.53;69.38
25510;BME280;13413;52.336;21.200;2023-07-13T13:25:03;100195.90;;;22.46;69.85
25510;BME280;13413;52.336;21.200;2023-07-13T13:27:56;100201.04;;;22.41;70.14
25510;BME280;13413;52.336;21.200;2023-07-13T13:30:50;100206.50;;;22.30;70.54
25510;BME280;13413;52.336;21.200;2023-07-13T13:33:46;100197.46;;;22.23;71.17
25510;BME280;13413;52.336;21.200;2023-07-13T13:36:40;100202.42;;;22.16;71.72
25510;BME280;13413;52.336;21.200;2023-07-13T13:39:36;100206.24;;;22.15;71.92
25510;BME280;13413;52.336;21.200;2023-07-13T13:42:30;100216.61;;;22.19;72.39
25510;BME280;13413;52.336;21.200;2023-07-13T13:45:24;100228.43;;;22.23;72.84
25510;BME280;13413;52.336;21.200;2023-07-13T13:48:21;100236.38;;;22.12;73.22
25510;BME280;13413;52.336;21.200;2023-07-13T13:51:34;100243.04;;;21.99;74.38
25510;BME280;13413;52.336;21.200;2023-07-13T13:54:28;100244.45;;;21.89;75.06
25510;BME280;13413;52.336;21.200;2023-07-13T13:57:22;100245.65;;;21.81;75.58
25510;BME280;13413;52.336;21.200;2023-07-13T14:00:20;100243.27;;;21.80;75.54
25510;BME280;13413;52.336;21.200;2023-07-13T14:03:17;100240.34;;;21.84;76.21
25510;BME280;13413;52.336;21.200;2023-07-13T14:06:15;100238.65;;;21.82;76.21
25510;BME280;13413;52.336;21.200;2023-07-13T14:09:12;100233.33;;;21.76;76.67
25510;BME280;13413;52.336;21.200;2023-07-13T14:12:08;100233.83;;;21.76;76.41
25510;BME280;13413;52.336;21.200;2023-07-13T14:15:03;100231.30;;;21.82;76.17
25510;BME280;13413;52.336;21.200;2023-07-13T14:17:57;100228.37;;;21.86;76.24
25510;BME280;13413;52.336;21.200;2023-07-13T14:20:51;100231.05;;;21.96;76.43
25510;BME280;13413;52.336;21.200;2023-07-13T14:23:43;100226.16;;;21.93;76.65
25510;BME280;13413;52.336;21.200;2023-07-13T14:29:42;100224.93;;;21.99;76.53
25510;BME280;13413;52.336;21.200;2023-07-13T14:32:36;100231.13;;;22.06;76.33
25510;BME280;13413;52.336;21.200;2023-07-13T14:35:30;100230.06;;;22.19;76.31
25510;BME280;13413;52.336;21.200;2023-07-13T14:38:24;100231.05;;;22.26;76.18
25510;BME280;13413;52.336;21.200;2023-07-13T14:41:18;100237.23;;;22.23;76.08
25510;BME280;13413;52.336;21.200;2023-07-13T14:44:16;100240.70;;;22.29;76.55
25510;BME280;13413;52.336;21.200;2023-07-13T14:47:10;100244.61;;;22.30;76.47
25510;BME280;13413;52.336;21.200;2023-07-13T14:50:07;100235.79;;;22.24;77.06
25510;BME280;13413;52.336;21.200;2023-07-13T14:53:07;100229.76;;;22.15;76.91
25510;BME280;13413;52.336;21.200;2023-07-13T14:56:04;100230.31;;;22.11;77.36
25510;BME280;13413;52.336;21.200;2023-07-13T14:59:02;100231.14;;;22.12;77.42
25510;BME280;13413;52.336;21.200;2023-07-13T15:01:56;100235.55;;;22.15;77.24
25510;BME280;13413;52.336;21.200;2023-07-13T15:04:50;100241.61;;;22.22;77.34
25510;BME280;13413;52.336;21.200;2023-07-13T15:07:44;100237.59;;;22.26;77.43
25510;BME280;13413;52.336;21.200;2023-07-13T15:10:38;100236.02;;;22.24;77.49
25510;BME280;13413;52.336;21.200;2023-07-13T15:13:32;100235.84;;;22.23;77.89
25510;BME280;13413;52.336;21.200;2023-07-13T15:16:25;100239.61;;;22.23;77.86
25510;BME280;13413;52.336;21.200;2023-07-13T15:19:20;100247.08;;;22.23;78.14
25510;BME280;13413;52.336;21.200;2023-07-13T15:22:14;100250.05;;;22.24;78.11
25510;BME280;13413;52.336;21.200;2023-07-13T15:25:14;100253.95;;;22.19;78.46
25510;BME280;13413;52.336;21.200;2023-07-13T15:28:09;100253.55;;;22.16;77.99
25510;BME280;13413;52.336;21.200;2023-07-13T15:31:08;100249.98;;;22.18;77.99
25510;BME280;13413;52.336;21.200;2023-07-13T15:34:14;100255.58;;;22.20;78.24
25510;BME280;13413;52.336;21.200;2023-07-13T15:37:14;100253.41;;;22.15;78.27
25510;BME280;13413;52.336;21.200;2023-07-13T15:40:11;100250.23;;;22.13;78.50
25510;BME280;13413;52.336;21.200;2023-07-13T15:43:12;100246.61;;;22.14;78.34
25510;BME280;13413;52.336;21.200;2023-07-13T15:46:06;100254.14;;;22.16;78.36
25510;BME280;13413;52.336;21.200;2023-07-13T15:49:01;100257.23;;;22.22;78.28
25510;BME280;13413;52.336;21.200;2023-07-13T15:51:54;100255.44;;;22.27;78.26
25510;BME280;13413;52.336;21.200;2023-07-13T15:54:49;100258.66;;;22.31;78.03
25510;BME280;13413;52.336;21.200;2023-07-13T15:57:46;100263.18;;;22.29;77.72
25510;BME280;13413;52.336;21.200;2023-07-13T16:00:40;100266.41;;;22.27;77.51
25510;BME280;13413;52.336;21.200;2023-07-13T16:03:54;100265.22;;;22.22;77.57
25510;BME280;13413;52.336;21.200;2023-07-13T16:06:48;100264.98;;;22.19;77.70